createdAt,value
2022-08-19T00:01:57.139Z,16.65
2022-08-19T00:04:37.854Z,14.48
2022-08-19T00:07:12.382Z,14.95
2022-08-19T00:09:46.950Z,15.35
2022-08-19T00:12:21.633Z,12.95
2022-08-19T00:15:23.601Z,14.90
2022-08-19T00:18:08.829Z,16.02
2022-08-19T00:21:09.216Z,14.75
2022-08-19T00:28:28.638Z,15.23
2022-08-19T00:31:34.900Z,14.80
2022-08-19T00:34:16.931Z,17.33
2022-08-19T00:41:36.226Z,16.00
2022-08-19T00:44:27.182Z,14.90
2022-08-19T00:47:17.043Z,17.45
2022-08-19T00:49:59.527Z,17.83
2022-08-19T00:52:40.065Z,14.77
2022-08-19T00:55:41.442Z,14.93
2022-08-19T00:58:37.707Z,13.30
2022-08-19T01:01:22.808Z,16.85
2022-08-19T01:08:08.833Z,16.38
2022-08-19T01:11:02.141Z,18.58
2022-08-19T01:13:55.184Z,15.98
2022-08-19T01:16:33.145Z,15.55
2022-08-19T01:19:31.725Z,16.08
2022-08-19T01:22:33.673Z,15.05
2022-08-19T01:33:34.147Z,17.55
2022-08-19T01:36:32.157Z,17.67
2022-08-19T01:39:17.391Z,17.58
2022-08-19T01:42:05.419Z,18.75
2022-08-19T01:44:53.373Z,17.75
2022-08-19T01:47:35.009Z,16.67
2022-08-19T01:50:14.543Z,17.05
2022-08-19T01:52:49.985Z,18.30
2022-08-19T01:55:45.636Z,17.08
2022-08-19T01:58:39.636Z,18.20
2022-08-19T02:01:23.578Z,16.75
2022-08-19T02:04:24.740Z,15.70
2022-08-19T02:07:05.257Z,19.55
2022-08-19T02:10:12.631Z,18.40
2022-08-19T02:12:55.029Z,19.02
2022-08-19T02:19:52.793Z,16.63
2022-08-19T02:22:36.351Z,19.85
2022-08-19T02:25:23.216Z,16.90
2022-08-19T02:28:49.747Z,16.17
2022-08-19T02:32:10.322Z,15.88
2022-08-19T02:39:23.379Z,16.77
2022-08-19T02:42:48.009Z,16.52
2022-08-19T02:45:41.451Z,16.70
2022-08-19T02:52:41.084Z,17.45
2022-08-19T02:55:45.943Z,17.50
2022-08-19T02:58:36.338Z,16.58
2022-08-19T03:01:13.672Z,15.55
2022-08-19T03:04:19.269Z,17.80
2022-08-19T03:07:18.585Z,16.27
2022-08-19T03:11:04.228Z,17.02
2022-08-19T03:22:07.036Z,14.40
2022-08-19T03:25:37.854Z,16.38
2022-08-19T03:28:58.031Z,17.30
2022-08-19T03:31:41.548Z,17.40
2022-08-19T03:34:29.376Z,14.10
2022-08-19T03:37:39.192Z,16.30
2022-08-19T03:40:40.493Z,16.80
2022-08-19T03:43:18.841Z,13.88
2022-08-19T03:46:08.136Z,15.43
2022-08-19T03:48:44.874Z,15.23
2022-08-19T03:51:40.710Z,15.57
2022-08-19T03:54:27.580Z,14.65
2022-08-19T03:57:17.349Z,14.98
2022-08-19T03:59:52.081Z,20.02
2022-08-19T04:02:29.453Z,15.25
2022-08-19T04:05:35.896Z,14.63
2022-08-19T04:08:20.133Z,13.45
2022-08-19T04:11:00.576Z,15.80
2022-08-19T04:13:35.563Z,14.27
2022-08-19T04:16:25.113Z,13.80
2022-08-19T04:28:40.577Z,16.75
2022-08-19T04:35:44.750Z,18.30
2022-08-19T04:39:13.244Z,15.15
2022-08-19T04:46:01.340Z,16.00
2022-08-19T04:54:01.741Z,14.73
2022-08-19T04:57:00.487Z,15.73
2022-08-19T05:05:02.799Z,17.00
2022-08-19T05:08:06.975Z,13.43
2022-08-19T05:11:23.435Z,16.38
2022-08-19T05:14:08.421Z,14.65
2022-08-19T05:17:27.550Z,19.02
2022-08-19T05:28:29.081Z,16.67
2022-08-19T05:35:38.914Z,18.00
2022-08-19T05:42:26.740Z,16.58
2022-08-19T05:45:12.715Z,17.27
2022-08-19T05:52:06.261Z,17.33
2022-08-19T05:58:47.806Z,16.15
2022-08-19T06:05:42.274Z,13.35
2022-08-19T06:12:40.537Z,14.75
2022-08-19T06:16:32.021Z,15.73
2022-08-19T06:23:35.051Z,15.65
2022-08-19T06:26:14.419Z,17.33
2022-08-19T06:37:14.600Z,18.83
2022-08-19T06:39:53.189Z,14.82
2022-08-19T06:42:54.966Z,16.20
2022-08-19T06:45:53.632Z,20.92
2022-08-19T06:48:39.361Z,15.50
2022-08-19T06:51:25.222Z,17.38
2022-08-19T06:58:10.862Z,27.65
2022-08-19T07:04:59.310Z,17.83
2022-08-19T07:07:34.656Z,19.35
2022-08-19T07:11:26.926Z,15.07
2022-08-19T07:14:29.409Z,18.67
2022-08-19T07:17:06.129Z,19.15
2022-08-19T07:24:04.191Z,21.45
2022-08-19T07:27:10.337Z,18.75
2022-08-19T07:34:31.928Z,18.23
2022-08-19T07:37:36.222Z,18.35
2022-08-19T07:48:34.832Z,19.42
2022-08-19T07:55:42.025Z,19.67
2022-08-19T07:58:53.162Z,21.73
2022-08-19T08:01:42.142Z,20.47
2022-08-19T08:04:57.957Z,21.08
2022-08-19T08:08:04.321Z,18.10
2022-08-19T08:10:41.416Z,15.73
2022-08-19T08:17:49.086Z,23.08
2022-08-19T08:21:16.298Z,20.23
2022-08-19T08:28:11.332Z,22.10
2022-08-19T08:35:06.671Z,19.67
2022-08-19T08:42:16.765Z,18.85
2022-08-19T08:45:02.346Z,20.27
2022-08-19T08:48:34.531Z,20.38
2022-08-19T08:51:33.126Z,21.58
2022-08-19T08:54:13.378Z,18.60
2022-08-19T08:57:57.003Z,17.45
2022-08-19T09:09:21.455Z,19.05
2022-08-19T09:12:06.565Z,22.52
2022-08-19T09:14:53.249Z,20.15
2022-08-19T09:17:36.424Z,18.52
2022-08-19T09:20:26.149Z,18.20
2022-08-19T09:23:05.145Z,19.70
2022-08-19T09:29:54.775Z,22.23
2022-08-19T09:32:35.272Z,18.17
2022-08-19T09:40:12.080Z,20.40
2022-08-19T09:43:13.218Z,21.15
2022-08-19T09:45:55.205Z,19.52
2022-08-19T09:49:03.022Z,21.10
2022-08-19T09:51:41.384Z,19.40
2022-08-19T09:54:17.336Z,18.42
2022-08-19T09:57:01.417Z,21.08
2022-08-19T09:59:39.379Z,21.92
2022-08-19T10:02:22.431Z,22.15
2022-08-19T10:05:16.579Z,23.48
2022-08-19T10:07:57.865Z,21.17
2022-08-19T10:10:38.219Z,21.20
2022-08-19T10:13:22.917Z,21.42
2022-08-19T10:16:30.319Z,17.88
2022-08-19T10:19:13.041Z,19.23
2022-08-19T10:22:10.134Z,20.20
2022-08-19T10:24:47.840Z,24.50
2022-08-19T10:27:23.081Z,24.17
2022-08-19T10:29:57.695Z,25.05
2022-08-19T10:32:35.091Z,22.25
2022-08-19T10:35:11.371Z,24.48
2022-08-19T10:37:57.401Z,23.58
2022-08-19T10:40:34.877Z,23.73
2022-08-19T10:43:10.826Z,20.92
2022-08-19T10:45:52.219Z,26.48
2022-08-19T10:48:28.882Z,23.67
2022-08-19T10:51:23.687Z,24.80
2022-08-19T10:54:00.141Z,26.50
2022-08-19T10:56:54.072Z,26.58
2022-08-19T10:59:35.933Z,25.55
2022-08-19T11:02:13.970Z,25.13
2022-08-19T11:04:50.698Z,26.80
2022-08-19T11:07:27.545Z,28.10
2022-08-19T11:10:03.982Z,27.00
2022-08-19T11:12:41.097Z,29.50
2022-08-19T11:15:16.797Z,27.92
2022-08-19T11:17:55.175Z,29.75
2022-08-19T11:20:36.264Z,26.13
2022-08-19T11:23:12.804Z,29.35
2022-08-19T11:25:47.739Z,26.27
2022-08-19T11:28:22.525Z,31.05
2022-08-19T11:30:59.298Z,27.40
2022-08-19T11:33:48.115Z,29.88
2022-08-19T11:39:41.360Z,30.75
2022-08-19T11:43:08.392Z,30.58
2022-08-19T11:46:17.235Z,26.60
2022-08-19T11:49:29.108Z,26.98
2022-08-19T11:52:11.819Z,29.15
2022-08-19T11:54:56.753Z,21.98
2022-08-19T11:57:42.273Z,21.92
2022-08-19T12:00:18.687Z,23.85
2022-08-19T12:03:05.828Z,23.67
2022-08-19T12:06:19.160Z,22.95
2022-08-19T12:09:12.828Z,22.38
2022-08-19T12:11:57.946Z,20.63
2022-08-19T12:15:46.483Z,19.85
2022-08-19T12:18:30.119Z,19.88
2022-08-19T12:21:12.219Z,21.75
2022-08-19T12:24:10.609Z,29.05
2022-08-19T12:27:03.089Z,29.55
2022-08-19T12:29:38.014Z,28.38
2022-08-19T12:32:12.568Z,29.20
2022-08-19T12:34:48.738Z,25.38
2022-08-19T12:37:29.374Z,28.88
2022-08-19T12:40:08.418Z,26.70
2022-08-19T12:42:44.626Z,30.85
2022-08-19T12:45:20.243Z,26.42
2022-08-19T12:48:34.705Z,22.48
2022-08-19T12:51:19.923Z,24.70
2022-08-19T12:53:59.514Z,29.25
2022-08-19T12:56:42.172Z,23.25
2022-08-19T12:59:25.853Z,24.23
2022-08-19T13:02:00.552Z,24.05
2022-08-19T13:04:39.112Z,24.45
2022-08-19T13:07:19.812Z,28.90
2022-08-19T13:09:55.071Z,21.17
2022-08-19T13:12:33.299Z,21.48
2022-08-19T13:15:32.243Z,23.75
2022-08-19T13:18:48.056Z,20.80
2022-08-19T13:22:00.421Z,22.38
2022-08-19T13:25:17.945Z,21.75
2022-08-19T13:28:08.289Z,19.80
2022-08-19T13:31:09.637Z,20.95
2022-08-19T13:33:48.523Z,18.08
2022-08-19T13:36:22.832Z,19.13
2022-08-19T13:43:12.419Z,18.05
2022-08-19T13:46:38.806Z,21.65
2022-08-19T13:49:31.981Z,19.23
2022-08-19T13:53:10.397Z,22.00
2022-08-19T14:00:20.561Z,20.48
2022-08-19T14:02:58.576Z,21.73
2022-08-19T14:05:37.126Z,20.52
2022-08-19T14:08:18.234Z,20.58
2022-08-19T14:10:54.110Z,21.77
2022-08-19T14:13:35.941Z,20.95
2022-08-19T14:21:41.583Z,19.00
2022-08-19T14:24:25.650Z,15.77
2022-08-19T14:27:05.890Z,16.70
2022-08-19T14:29:41.646Z,18.73
2022-08-19T14:32:29.660Z,23.05
2022-08-19T14:35:20.685Z,21.20
2022-08-19T14:38:07.886Z,19.42
2022-08-19T14:40:56.457Z,21.08
2022-08-19T14:43:33.630Z,19.02
2022-08-19T14:46:18.853Z,21.65
2022-08-19T14:48:56.068Z,20.08
2022-08-19T14:51:42.184Z,20.77
2022-08-19T14:54:23.553Z,19.60
2022-08-19T14:57:47.032Z,17.92
2022-08-19T15:00:24.194Z,19.38
2022-08-19T15:03:00.102Z,16.48
2022-08-19T15:06:07.353Z,17.65
2022-08-19T15:09:04.025Z,19.10
2022-08-19T15:11:41.317Z,16.55
2022-08-19T15:14:24.745Z,17.67
2022-08-19T15:16:59.478Z,17.23
2022-08-19T15:19:37.155Z,17.85
2022-08-19T15:22:11.810Z,16.02
2022-08-19T15:24:48.337Z,13.75
2022-08-19T15:27:52.338Z,15.05
2022-08-19T15:30:35.902Z,17.02
2022-08-19T15:33:10.738Z,16.30
2022-08-19T15:35:47.574Z,15.13
2022-08-19T15:38:24.694Z,12.60
2022-08-19T15:41:19.415Z,14.63
2022-08-19T15:43:57.029Z,15.23
2022-08-19T15:46:41.914Z,16.20
2022-08-19T15:49:19.348Z,13.45
2022-08-19T15:51:58.232Z,13.48
2022-08-19T15:54:36.082Z,15.25
2022-08-19T15:57:41.292Z,14.93
2022-08-19T16:00:52.730Z,15.73
2022-08-19T16:03:48.417Z,14.23
2022-08-19T16:06:54.729Z,12.07
2022-08-19T16:09:36.700Z,14.35
2022-08-19T16:12:17.359Z,11.45
2022-08-19T16:15:01.327Z,11.38
2022-08-19T16:18:04.938Z,14.68
2022-08-19T16:20:42.389Z,13.90
2022-08-19T16:23:25.575Z,13.57
2022-08-19T16:26:24.070Z,12.95
2022-08-19T16:29:39.342Z,12.95
2022-08-19T16:32:14.757Z,14.98
2022-08-19T16:34:54.936Z,14.63
2022-08-19T16:37:37.968Z,11.73
2022-08-19T16:40:19.213Z,14.32
2022-08-19T16:42:59.853Z,15.25
2022-08-19T16:45:43.365Z,13.02
2022-08-19T16:48:19.044Z,14.93
2022-08-19T16:50:54.279Z,13.85
2022-08-19T16:53:32.913Z,15.45
2022-08-19T16:56:08.104Z,15.82
2022-08-19T16:58:43.373Z,14.60
2022-08-19T17:01:24.579Z,14.60
2022-08-19T17:04:12.582Z,14.82
2022-08-19T17:06:47.710Z,12.85
2022-08-19T17:09:25.892Z,12.02
2022-08-19T17:12:02.318Z,10.57
2022-08-19T17:14:37.420Z,13.25
2022-08-19T17:17:28.734Z,11.13
2022-08-19T17:20:12.843Z,12.23
2022-08-19T17:22:59.692Z,10.45
2022-08-19T17:25:43.221Z,11.82
2022-08-19T17:28:41.970Z,9.38
2022-08-19T17:31:19.213Z,10.15
2022-08-19T17:33:55.206Z,11.93
2022-08-19T17:36:36.755Z,12.65
2022-08-19T17:39:12.879Z,11.07
2022-08-19T17:41:49.770Z,13.73
2022-08-19T17:44:24.969Z,12.55
2022-08-19T17:47:00.605Z,12.23
2022-08-19T17:49:37.982Z,12.60
2022-08-19T17:53:11.354Z,13.75
2022-08-19T17:55:49.309Z,12.95
2022-08-19T17:58:37.504Z,12.98
2022-08-19T18:01:16.794Z,11.50
2022-08-19T18:04:00.086Z,11.57
2022-08-19T18:06:36.733Z,11.15
2022-08-19T18:09:11.291Z,12.02
2022-08-19T18:11:52.760Z,11.82
2022-08-19T18:14:35.779Z,11.70
2022-08-19T18:17:17.478Z,9.35
2022-08-19T18:19:54.005Z,12.35
2022-08-19T18:22:35.997Z,10.77
2022-08-19T18:25:18.146Z,12.35
2022-08-19T18:28:01.267Z,12.70
2022-08-19T18:30:44.025Z,11.23
2022-08-19T18:33:19.655Z,11.43
2022-08-19T18:35:54.104Z,9.93
2022-08-19T18:38:46.122Z,12.95
2022-08-19T18:41:38.113Z,11.60
2022-08-19T18:44:29.871Z,14.15
2022-08-19T18:47:23.428Z,12.23
2022-08-19T18:50:53.339Z,10.68
2022-08-19T18:54:17.195Z,11.77
2022-08-19T18:57:05.726Z,12.57
2022-08-19T18:59:53.828Z,14.90
2022-08-19T19:02:30.062Z,12.82
2022-08-19T19:05:42.474Z,12.23
2022-08-19T19:08:17.889Z,10.80
2022-08-19T19:10:53.995Z,10.07
2022-08-19T19:13:30.203Z,10.93
2022-08-19T19:16:06.467Z,12.25
2022-08-19T19:18:42.662Z,11.93
2022-08-19T19:21:18.619Z,11.95
2022-08-19T19:23:54.285Z,11.27
2022-08-19T19:26:36.580Z,11.05
2022-08-19T19:29:11.777Z,11.27
2022-08-19T19:31:49.696Z,10.55
2022-08-19T19:34:29.848Z,11.57
2022-08-19T19:37:06.791Z,10.23
2022-08-19T19:39:46.679Z,10.48
2022-08-19T19:45:04.235Z,11.75
2022-08-19T19:47:51.324Z,10.73
2022-08-19T19:50:41.689Z,10.15
2022-08-19T19:56:59.849Z,12.00
2022-08-19T19:59:37.542Z,11.73
2022-08-19T20:02:25.915Z,12.88
2022-08-19T20:05:51.534Z,12.98
2022-08-19T20:09:43.704Z,12.75
2022-08-19T20:12:24.940Z,13.82
2022-08-19T20:15:18.650Z,12.23
2022-08-19T20:18:07.593Z,11.18
2022-08-19T20:21:33.532Z,15.23
2022-08-19T20:25:01.308Z,9.77
2022-08-19T20:27:39.836Z,12.20
2022-08-19T20:30:33.190Z,13.55
2022-08-19T20:33:10.667Z,10.77
2022-08-19T20:36:18.479Z,12.32
2022-08-19T20:38:54.111Z,13.45
2022-08-19T20:41:30.850Z,11.35
2022-08-19T20:44:12.231Z,10.93
2022-08-19T20:46:55.502Z,10.18
2022-08-19T20:49:48.451Z,10.77
2022-08-19T20:52:23.232Z,11.52
2022-08-19T20:54:58.656Z,9.93
2022-08-19T20:57:36.337Z,11.48
2022-08-19T21:00:18.440Z,11.60
2022-08-19T21:02:53.313Z,10.07
2022-08-19T21:05:35.660Z,9.93
2022-08-19T21:08:11.456Z,11.32
2022-08-19T21:10:56.587Z,10.40
2022-08-19T21:13:38.541Z,10.73
2022-08-19T21:16:16.550Z,14.90
2022-08-19T21:18:54.059Z,12.88
2022-08-19T21:21:35.597Z,13.77
2022-08-19T21:24:17.788Z,10.95
2022-08-19T21:27:49.905Z,12.38
2022-08-19T21:30:32.584Z,13.15
2022-08-19T21:33:35.446Z,11.43
2022-08-19T21:36:12.642Z,12.85
2022-08-19T21:38:48.090Z,12.32
2022-08-19T21:41:30.045Z,12.73
2022-08-19T21:44:06.886Z,13.27
2022-08-19T21:46:53.491Z,11.95
2022-08-19T21:49:28.749Z,13.73
2022-08-19T21:52:06.184Z,12.45
2022-08-19T21:54:43.333Z,12.25
2022-08-19T21:57:17.969Z,12.85
2022-08-19T21:59:52.725Z,13.23
2022-08-19T22:02:53.149Z,12.98
2022-08-19T22:08:46.054Z,11.88
2022-08-19T22:11:47.159Z,12.70
2022-08-19T22:15:06.278Z,12.43
2022-08-19T22:18:07.314Z,11.13
2022-08-19T22:21:11.314Z,11.75
2022-08-19T22:23:46.585Z,13.25
2022-08-19T22:26:22.351Z,14.05
2022-08-19T22:29:05.679Z,9.60
2022-08-19T22:31:54.299Z,12.00
2022-08-19T22:34:34.704Z,10.98
2022-08-19T22:37:12.243Z,10.50
2022-08-19T22:39:48.063Z,9.77
2022-08-19T22:42:23.343Z,9.82
2022-08-19T22:44:59.177Z,11.38
2022-08-19T22:47:34.406Z,11.25
2022-08-19T22:51:12.210Z,10.55
2022-08-19T22:53:54.385Z,10.32
2022-08-19T22:56:28.975Z,10.07
2022-08-19T22:59:04.905Z,9.05
2022-08-19T23:01:41.987Z,13.77
2022-08-19T23:04:16.436Z,10.07
2022-08-19T23:06:58.634Z,9.77
2022-08-19T23:09:33.572Z,7.53
2022-08-19T23:12:14.027Z,9.00
2022-08-19T23:14:49.566Z,8.40
2022-08-19T23:17:24.098Z,8.57
2022-08-19T23:20:00.405Z,8.48
2022-08-19T23:22:45.176Z,8.85
2022-08-19T23:26:12.133Z,7.75
2022-08-19T23:29:11.433Z,7.43
2022-08-19T23:32:01.138Z,7.75
2022-08-19T23:34:36.562Z,7.30
2022-08-19T23:37:16.832Z,8.13
2022-08-19T23:44:14.797Z,10.18
2022-08-19T23:46:58.215Z,6.82
2022-08-19T23:49:35.008Z,6.60
2022-08-19T23:52:11.102Z,6.85
2022-08-19T23:54:48.498Z,8.55
2022-08-19T23:57:23.518Z,8.00
